sensor_id;sensor_type;location;lat;lon;timestamp;P1;durP1;ratioP1;P2;durP2;ratioP2
3185;SDS011;1604;53.700;10.252;2023-12-04T00:02:31;41.13;;;18.40;;
3185;SDS011;1604;53.700;10.252;2023-12-04T00:05:33;38.37;;;18.93;;
3185;SDS011;1604;53.700;10.252;2023-12-04T00:08:35;33.30;;;17.00;;
3185;SDS011;1604;53.700;10.252;2023-12-04T00:11:37;37.03;;;18.73;;
3185;SDS011;1604;53.700;10.252;2023-12-04T00:14:39;38.47;;;18.50;;
3185;SDS011;1604;53.700;10.252;2023-12-04T00:17:43;34.60;;;17.67;;
3185;SDS011;1604;53.700;10.252;2023-12-04T00:20:45;49.90;;;19.10;;
3185;SDS011;1604;53.700;10.252;2023-12-04T00:23:47;40.57;;;18.47;;
3185;SDS011;1604;53.700;10.252;2023-12-04T00:26:49;48.83;;;19.37;;
3185;SDS011;1604;53.700;10.252;2023-12-04T00:29:51;39.00;;;17.60;;
3185;SDS011;1604;53.700;10.252;2023-12-04T00:32:54;48.77;;;19.83;;
3185;SDS011;1604;53.700;10.252;2023-12-04T00:35:56;46.60;;;19.77;;
3185;SDS011;1604;53.700;10.252;2023-12-04T00:38:58;43.03;;;18.30;;
3185;SDS011;1604;53.700;10.252;2023-12-04T00:42:00;42.73;;;18.20;;
3185;SDS011;1604;53.700;10.252;2023-12-04T00:45:02;44.00;;;18.23;;
3185;SDS011;1604;53.700;10.252;2023-12-04T00:48:06;43.23;;;17.00;;
3185;SDS011;1604;53.700;10.252;2023-12-04T00:51:08;43.70;;;21.40;;
3185;SDS011;1604;53.700;10.252;2023-12-04T00:54:10;45.57;;;20.40;;
3185;SDS011;1604;53.700;10.252;2023-12-04T00:57:12;43.43;;;20.90;;
3185;SDS011;1604;53.700;10.252;2023-12-04T01:00:14;46.07;;;19.10;;
3185;SDS011;1604;53.700;10.252;2023-12-04T01:03:18;40.20;;;18.43;;
3185;SDS011;1604;53.700;10.252;2023-12-04T01:06:21;47.90;;;22.47;;
3185;SDS011;1604;53.700;10.252;2023-12-04T01:09:23;42.87;;;20.10;;
3185;SDS011;1604;53.700;10.252;2023-12-04T01:12:25;41.87;;;17.93;;
3185;SDS011;1604;53.700;10.252;2023-12-04T01:15:27;39.60;;;19.07;;
3185;SDS011;1604;53.700;10.252;2023-12-04T01:18:31;37.43;;;18.60;;
3185;SDS011;1604;53.700;10.252;2023-12-04T01:21:33;45.37;;;21.37;;
3185;SDS011;1604;53.700;10.252;2023-12-04T01:24:35;41.50;;;19.03;;
3185;SDS011;1604;53.700;10.252;2023-12-04T01:27:37;47.40;;;21.70;;
3185;SDS011;1604;53.700;10.252;2023-12-04T01:30:38;45.43;;;20.30;;
3185;SDS011;1604;53.700;10.252;2023-12-04T01:33:42;49.07;;;22.13;;
3185;SDS011;1604;53.700;10.252;2023-12-04T01:36:44;44.50;;;20.97;;
3185;SDS011;1604;53.700;10.252;2023-12-04T01:39:46;48.80;;;19.50;;
3185;SDS011;1604;53.700;10.252;2023-12-04T01:42:48;48.03;;;18.23;;
3185;SDS011;1604;53.700;10.252;2023-12-04T01:45:50;47.80;;;21.50;;
3185;SDS011;1604;53.700;10.252;2023-12-04T01:48:55;41.87;;;18.03;;
3185;SDS011;1604;53.700;10.252;2023-12-04T01:51:57;50.30;;;18.83;;
3185;SDS011;1604;53.700;10.252;2023-12-04T01:54:59;40.77;;;19.17;;
3185;SDS011;1604;53.700;10.252;2023-12-04T01:58:01;45.67;;;19.37;;
3185;SDS011;1604;53.700;10.252;2023-12-04T02:01:04;55.23;;;20.77;;
3185;SDS011;1604;53.700;10.252;2023-12-04T02:04:08;47.67;;;20.20;;
3185;SDS011;1604;53.700;10.252;2023-12-04T02:07:10;46.43;;;20.50;;
3185;SDS011;1604;53.700;10.252;2023-12-04T02:10:12;43.00;;;19.40;;
3185;SDS011;1604;53.700;10.252;2023-12-04T02:13:14;39.60;;;18.67;;
3185;SDS011;1604;53.700;10.252;2023-12-04T02:16:16;40.90;;;20.10;;
3185;SDS011;1604;53.700;10.252;2023-12-04T02:19:22;45.87;;;18.97;;
3185;SDS011;1604;53.700;10.252;2023-12-04T02:22:25;41.80;;;18.97;;
3185;SDS011;1604;53.700;10.252;2023-12-04T02:25:28;45.10;;;19.80;;
3185;SDS011;1604;53.700;10.252;2023-12-04T02:28:32;41.70;;;19.37;;
3185;SDS011;1604;53.700;10.252;2023-12-04T02:31:36;39.40;;;17.60;;
3185;SDS011;1604;53.700;10.252;2023-12-04T02:34:40;41.67;;;20.77;;
3185;SDS011;1604;53.700;10.252;2023-12-04T02:37:44;45.23;;;20.37;;
3185;SDS011;1604;53.700;10.252;2023-12-04T02:40:47;43.13;;;18.90;;
3185;SDS011;1604;53.700;10.252;2023-12-04T02:43:49;39.97;;;17.97;;
3185;SDS011;1604;53.700;10.252;2023-12-04T02:46:51;42.20;;;18.37;;
3185;SDS011;1604;53.700;10.252;2023-12-04T02:49:53;46.67;;;19.87;;
3185;SDS011;1604;53.700;10.252;2023-12-04T02:52:55;47.33;;;18.20;;
3185;SDS011;1604;53.700;10.252;2023-12-04T02:55:58;42.00;;;18.03;;
3185;SDS011;1604;53.700;10.252;2023-12-04T02:59:00;43.10;;;18.43;;
3185;SDS011;1604;53.700;10.252;2023-12-04T03:02:02;32.03;;;17.10;;
3185;SDS011;1604;53.700;10.252;2023-12-04T03:05:04;40.90;;;17.37;;
3185;SDS011;1604;53.700;10.252;2023-12-04T03:08:07;43.57;;;17.80;;
3185;SDS011;1604;53.700;10.252;2023-12-04T03:11:10;46.43;;;19.43;;
3185;SDS011;1604;53.700;10.252;2023-12-04T03:14:12;45.13;;;19.47;;
3185;SDS011;1604;53.700;10.252;2023-12-04T03:17:14;43.77;;;18.73;;
3185;SDS011;1604;53.700;10.252;2023-12-04T03:20:16;44.17;;;20.20;;
3185;SDS011;1604;53.700;10.252;2023-12-04T03:23:18;45.63;;;20.80;;
3185;SDS011;1604;53.700;10.252;2023-12-04T03:26:21;52.60;;;18.60;;
3185;SDS011;1604;53.700;10.252;2023-12-04T03:29:23;57.67;;;22.60;;
3185;SDS011;1604;53.700;10.252;2023-12-04T03:32:25;42.03;;;20.27;;
3185;SDS011;1604;53.700;10.252;2023-12-04T03:35:27;45.10;;;17.43;;
3185;SDS011;1604;53.700;10.252;2023-12-04T03:38:29;42.30;;;18.47;;
3185;SDS011;1604;53.700;10.252;2023-12-04T03:41:32;40.80;;;19.23;;
3185;SDS011;1604;53.700;10.252;2023-12-04T03:44:34;45.43;;;19.50;;
3185;SDS011;1604;53.700;10.252;2023-12-04T03:47:36;53.30;;;21.47;;
3185;SDS011;1604;53.700;10.252;2023-12-04T03:50:38;58.30;;;22.93;;
3185;SDS011;1604;53.700;10.252;2023-12-04T03:53:40;59.23;;;23.17;;
3185;SDS011;1604;53.700;10.252;2023-12-04T03:56:43;82.20;;;29.10;;
3185;SDS011;1604;53.700;10.252;2023-12-04T03:59:45;69.57;;;25.10;;
3185;SDS011;1604;53.700;10.252;2023-12-04T04:02:47;44.73;;;18.07;;
3185;SDS011;1604;53.700;10.252;2023-12-04T04:05:49;53.53;;;20.63;;
3185;SDS011;1604;53.700;10.252;2023-12-04T04:08:51;38.83;;;17.90;;
3185;SDS011;1604;53.700;10.252;2023-12-04T04:11:54;36.23;;;16.93;;
3185;SDS011;1604;53.700;10.252;2023-12-04T04:14:56;41.07;;;18.20;;
3185;SDS011;1604;53.700;10.252;2023-12-04T04:17:58;46.73;;;19.77;;
3185;SDS011;1604;53.700;10.252;2023-12-04T04:21:00;41.03;;;17.20;;
3185;SDS011;1604;53.700;10.252;2023-12-04T04:24:02;35.37;;;14.77;;
3185;SDS011;1604;53.700;10.252;2023-12-04T04:27:06;36.87;;;16.10;;
3185;SDS011;1604;53.700;10.252;2023-12-04T04:30:09;37.87;;;15.67;;
3185;SDS011;1604;53.700;10.252;2023-12-04T04:33:13;41.20;;;19.17;;
3185;SDS011;1604;53.700;10.252;2023-12-04T04:36:17;34.20;;;16.07;;
3185;SDS011;1604;53.700;10.252;2023-12-04T04:39:19;40.20;;;17.23;;
3185;SDS011;1604;53.700;10.252;2023-12-04T04:42:22;38.23;;;17.13;;
3185;SDS011;1604;53.700;10.252;2023-12-04T04:45:24;35.07;;;16.47;;
3185;SDS011;1604;53.700;10.252;2023-12-04T04:48:26;32.80;;;15.20;;
3185;SDS011;1604;53.700;10.252;2023-12-04T04:51:28;42.03;;;16.37;;
3185;SDS011;1604;53.700;10.252;2023-12-04T04:54:30;35.03;;;17.00;;
3185;SDS011;1604;53.700;10.252;2023-12-04T04:57:34;32.53;;;15.70;;
3185;SDS011;1604;53.700;10.252;2023-12-04T05:00:36;30.60;;;16.00;;
3185;SDS011;1604;53.700;10.252;2023-12-04T05:03:38;38.03;;;17.90;;
3185;SDS011;1604;53.700;10.252;2023-12-04T05:06:40;49.07;;;19.73;;
3185;SDS011;1604;53.700;10.252;2023-12-04T05:09:42;32.53;;;15.57;;
3185;SDS011;1604;53.700;10.252;2023-12-04T05:12:45;49.23;;;18.83;;
3185;SDS011;1604;53.700;10.252;2023-12-04T05:15:47;37.07;;;17.27;;
3185;SDS011;1604;53.700;10.252;2023-12-04T05:18:49;37.90;;;17.00;;
3185;SDS011;1604;53.700;10.252;2023-12-04T05:21:51;40.27;;;17.70;;
3185;SDS011;1604;53.700;10.252;2023-12-04T05:24:53;39.90;;;16.60;;
3185;SDS011;1604;53.700;10.252;2023-12-04T05:27:56;44.70;;;17.70;;
3185;SDS011;1604;53.700;10.252;2023-12-04T05:30:59;51.20;;;19.50;;
3185;SDS011;1604;53.700;10.252;2023-12-04T05:34:01;47.30;;;19.80;;
3185;SDS011;1604;53.700;10.252;2023-12-04T05:37:03;43.50;;;17.47;;
3185;SDS011;1604;53.700;10.252;2023-12-04T05:40:06;45.73;;;16.97;;
3185;SDS011;1604;53.700;10.252;2023-12-04T05:43:10;43.87;;;20.30;;
3185;SDS011;1604;53.700;10.252;2023-12-04T05:46:12;46.47;;;18.70;;
3185;SDS011;1604;53.700;10.252;2023-12-04T05:49:14;54.83;;;22.00;;
3185;SDS011;1604;53.700;10.252;2023-12-04T05:52:16;48.73;;;22.23;;
3185;SDS011;1604;53.700;10.252;2023-12-04T05:55:18;46.87;;;21.00;;
3185;SDS011;1604;53.700;10.252;2023-12-04T05:58:22;53.80;;;23.20;;
3185;SDS011;1604;53.700;10.252;2023-12-04T06:01:24;49.30;;;20.80;;
3185;SDS011;1604;53.700;10.252;2023-12-04T06:04:26;48.93;;;21.57;;
3185;SDS011;1604;53.700;10.252;2023-12-04T06:07:28;51.47;;;24.23;;
3185;SDS011;1604;53.700;10.252;2023-12-04T06:10:30;51.10;;;22.67;;
3185;SDS011;1604;53.700;10.252;2023-12-04T06:13:35;56.03;;;21.80;;
3185;SDS011;1604;53.700;10.252;2023-12-04T06:16:37;46.20;;;20.07;;
3185;SDS011;1604;53.700;10.252;2023-12-04T06:19:39;35.13;;;17.80;;
3185;SDS011;1604;53.700;10.252;2023-12-04T06:22:41;43.87;;;19.00;;
3185;SDS011;1604;53.700;10.252;2023-12-04T06:25:43;45.53;;;18.57;;
3185;SDS011;1604;53.700;10.252;2023-12-04T06:28:47;47.50;;;20.93;;
3185;SDS011;1604;53.700;10.252;2023-12-04T06:31:50;41.97;;;19.77;;
3185;SDS011;1604;53.700;10.252;2023-12-04T06:34:52;46.60;;;19.10;;
3185;SDS011;1604;53.700;10.252;2023-12-04T06:37:55;45.00;;;22.23;;
3185;SDS011;1604;53.700;10.252;2023-12-04T06:41:01;44.67;;;20.13;;
3185;SDS011;1604;53.700;10.252;2023-12-04T06:44:06;49.63;;;21.27;;
3185;SDS011;1604;53.700;10.252;2023-12-04T06:47:09;42.60;;;19.87;;
3185;SDS011;1604;53.700;10.252;2023-12-04T06:50:13;56.77;;;21.20;;
3185;SDS011;1604;53.700;10.252;2023-12-04T06:53:14;49.83;;;21.43;;
3185;SDS011;1604;53.700;10.252;2023-12-04T06:56:16;43.80;;;18.97;;
3185;SDS011;1604;53.700;10.252;2023-12-04T06:59:20;45.03;;;18.23;;
3185;SDS011;1604;53.700;10.252;2023-12-04T07:02:22;47.83;;;20.17;;
3185;SDS011;1604;53.700;10.252;2023-12-04T07:05:24;48.53;;;19.83;;
3185;SDS011;1604;53.700;10.252;2023-12-04T07:08:26;52.73;;;19.87;;
3185;SDS011;1604;53.700;10.252;2023-12-04T07:11:28;47.63;;;23.40;;
3185;SDS011;1604;53.700;10.252;2023-12-04T07:14:31;48.10;;;22.10;;
3185;SDS011;1604;53.700;10.252;2023-12-04T07:17:33;48.47;;;19.73;;
3185;SDS011;1604;53.700;10.252;2023-12-04T07:20:35;44.13;;;20.70;;
3185;SDS011;1604;53.700;10.252;2023-12-04T07:23:38;60.17;;;22.03;;
3185;SDS011;1604;53.700;10.252;2023-12-04T07:26:40;37.63;;;15.67;;
3185;SDS011;1604;53.700;10.252;2023-12-04T07:29:44;54.00;;;21.80;;
3185;SDS011;1604;53.700;10.252;2023-12-04T07:32:45;44.03;;;17.90;;
3185;SDS011;1604;53.700;10.252;2023-12-04T07:35:47;42.50;;;19.20;;
3185;SDS011;1604;53.700;10.252;2023-12-04T07:38:51;37.73;;;17.40;;
3185;SDS011;1604;53.700;10.252;2023-12-04T07:41:54;42.87;;;20.27;;
3185;SDS011;1604;53.700;10.252;2023-12-04T07:44:57;43.43;;;17.77;;
3185;SDS011;1604;53.700;10.252;2023-12-04T07:47:59;59.23;;;20.17;;
3185;SDS011;1604;53.700;10.252;2023-12-04T07:51:01;48.57;;;20.63;;
3185;SDS011;1604;53.700;10.252;2023-12-04T07:54:04;37.90;;;18.33;;
3185;SDS011;1604;53.700;10.252;2023-12-04T07:57:06;46.10;;;18.37;;
3185;SDS011;1604;53.700;10.252;2023-12-04T08:00:09;41.77;;;17.90;;
3185;SDS011;1604;53.700;10.252;2023-12-04T08:03:12;46.90;;;18.70;;
3185;SDS011;1604;53.700;10.252;2023-12-04T08:06:14;44.43;;;18.87;;
3185;SDS011;1604;53.700;10.252;2023-12-04T08:09:18;38.40;;;16.47;;
3185;SDS011;1604;53.700;10.252;2023-12-04T08:12:21;49.33;;;19.60;;
3185;SDS011;1604;53.700;10.252;2023-12-04T08:15:24;41.07;;;17.00;;
3185;SDS011;1604;53.700;10.252;2023-12-04T08:18:26;52.37;;;20.90;;
3185;SDS011;1604;53.700;10.252;2023-12-04T08:21:28;42.13;;;18.00;;
3185;SDS011;1604;53.700;10.252;2023-12-04T08:24:32;44.13;;;20.37;;
3185;SDS011;1604;53.700;10.252;2023-12-04T08:27:34;44.27;;;18.37;;
3185;SDS011;1604;53.700;10.252;2023-12-04T08:30:38;49.00;;;19.53;;
3185;SDS011;1604;53.700;10.252;2023-12-04T08:33:40;43.30;;;19.03;;
3185;SDS011;1604;53.700;10.252;2023-12-04T08:36:42;46.10;;;20.10;;
3185;SDS011;1604;53.700;10.252;2023-12-04T08:39:43;47.77;;;22.17;;
3185;SDS011;1604;53.700;10.252;2023-12-04T08:42:46;53.70;;;23.13;;
3185;SDS011;1604;53.700;10.252;2023-12-04T08:45:49;47.30;;;19.53;;
3185;SDS011;1604;53.700;10.252;2023-12-04T08:48:51;38.80;;;18.60;;
3185;SDS011;1604;53.700;10.252;2023-12-04T08:51:53;47.43;;;20.90;;
3185;SDS011;1604;53.700;10.252;2023-12-04T08:54:55;42.67;;;18.83;;
3185;SDS011;1604;53.700;10.252;2023-12-04T08:57:57;41.70;;;18.07;;
3185;SDS011;1604;53.700;10.252;2023-12-04T09:01:01;41.80;;;20.03;;
3185;SDS011;1604;53.700;10.252;2023-12-04T09:04:04;51.40;;;21.80;;
3185;SDS011;1604;53.700;10.252;2023-12-04T09:07:06;57.07;;;24.67;;
3185;SDS011;1604;53.700;10.252;2023-12-04T09:10:08;56.23;;;22.27;;
3185;SDS011;1604;53.700;10.252;2023-12-04T09:13:11;45.00;;;17.53;;
3185;SDS011;1604;53.700;10.252;2023-12-04T09:16:14;46.20;;;20.27;;
3185;SDS011;1604;53.700;10.252;2023-12-04T09:19:17;48.10;;;21.73;;
3185;SDS011;1604;53.700;10.252;2023-12-04T09:22:19;50.63;;;21.83;;
3185;SDS011;1604;53.700;10.252;2023-12-04T09:25:21;49.13;;;22.73;;
3185;SDS011;1604;53.700;10.252;2023-12-04T09:28:22;48.07;;;21.67;;
3185;SDS011;1604;53.700;10.252;2023-12-04T09:31:26;47.30;;;21.57;;
3185;SDS011;1604;53.700;10.252;2023-12-04T09:34:28;59.13;;;24.13;;
3185;SDS011;1604;53.700;10.252;2023-12-04T09:37:30;49.13;;;20.37;;
3185;SDS011;1604;53.700;10.252;2023-12-04T09:40:32;51.47;;;22.13;;
3185;SDS011;1604;53.700;10.252;2023-12-04T09:43:34;49.17;;;20.07;;
3185;SDS011;1604;53.700;10.252;2023-12-04T09:46:38;41.43;;;16.20;;
3185;SDS011;1604;53.700;10.252;2023-12-04T09:49:45;52.60;;;22.47;;
3185;SDS011;1604;53.700;10.252;2023-12-04T09:52:47;51.03;;;22.60;;
3185;SDS011;1604;53.700;10.252;2023-12-04T09:56:10;47.73;;;20.63;;
3185;SDS011;1604;53.700;10.252;2023-12-04T09:59:26;49.77;;;21.23;;
3185;SDS011;1604;53.700;10.252;2023-12-04T10:02:32;51.93;;;24.60;;
3185;SDS011;1604;53.700;10.252;2023-12-04T10:05:48;45.50;;;20.97;;
3185;SDS011;1604;53.700;10.252;2023-12-04T10:08:50;51.80;;;24.67;;
3185;SDS011;1604;53.700;10.252;2023-12-04T10:11:52;49.20;;;20.67;;
3185;SDS011;1604;53.700;10.252;2023-12-04T10:15:11;43.57;;;19.00;;
3185;SDS011;1604;53.700;10.252;2023-12-04T10:18:27;45.30;;;21.20;;
3185;SDS011;1604;53.700;10.252;2023-12-04T10:21:31;49.77;;;22.80;;
3185;SDS011;1604;53.700;10.252;2023-12-04T10:24:34;56.00;;;23.37;;
3185;SDS011;1604;53.700;10.252;2023-12-04T10:27:37;53.50;;;24.50;;
3185;SDS011;1604;53.700;10.252;2023-12-04T10:30:41;59.13;;;21.40;;
3185;SDS011;1604;53.700;10.252;2023-12-04T10:33:45;49.10;;;21.70;;
3185;SDS011;1604;53.700;10.252;2023-12-04T10:37:02;46.90;;;20.40;;
3185;SDS011;1604;53.700;10.252;2023-12-04T10:40:09;42.37;;;17.40;;
3185;SDS011;1604;53.700;10.252;2023-12-04T10:43:14;49.60;;;21.10;;
3185;SDS011;1604;53.700;10.252;2023-12-04T10:46:23;49.90;;;23.43;;
3185;SDS011;1604;53.700;10.252;2023-12-04T10:49:27;53.07;;;23.20;;
3185;SDS011;1604;53.700;10.252;2023-12-04T10:52:43;50.30;;;21.17;;
3185;SDS011;1604;53.700;10.252;2023-12-04T10:55:47;55.20;;;24.70;;
3185;SDS011;1604;53.700;10.252;2023-12-04T10:58:52;40.20;;;17.40;;
3185;SDS011;1604;53.700;10.252;2023-12-04T11:01:57;33.50;;;14.70;;
3185;SDS011;1604;53.700;10.252;2023-12-04T11:05:05;50.43;;;20.57;;
3185;SDS011;1604;53.700;10.252;2023-12-04T11:08:22;54.10;;;22.20;;
3185;SDS011;1604;53.700;10.252;2023-12-04T11:11:26;56.53;;;24.33;;
3185;SDS011;1604;53.700;10.252;2023-12-04T11:14:34;40.07;;;20.23;;
3185;SDS011;1604;53.700;10.252;2023-12-04T11:17:45;47.40;;;24.47;;
3185;SDS011;1604;53.700;10.252;2023-12-04T11:20:54;49.30;;;19.37;;
3185;SDS011;1604;53.700;10.252;2023-12-04T11:24:00;43.70;;;20.40;;
3185;SDS011;1604;53.700;10.252;2023-12-04T11:27:17;29.57;;;15.30;;
3185;SDS011;1604;53.700;10.252;2023-12-04T11:30:20;40.60;;;18.77;;
3185;SDS011;1604;53.700;10.252;2023-12-04T11:33:23;52.43;;;18.73;;
3185;SDS011;1604;53.700;10.252;2023-12-04T11:36:27;41.10;;;21.43;;
3185;SDS011;1604;53.700;10.252;2023-12-04T11:39:46;39.20;;;17.77;;
3185;SDS011;1604;53.700;10.252;2023-12-04T11:43:24;35.13;;;17.40;;
3185;SDS011;1604;53.700;10.252;2023-12-04T11:46:27;41.53;;;21.67;;
3185;SDS011;1604;53.700;10.252;2023-12-04T11:49:37;45.77;;;18.57;;
3185;SDS011;1604;53.700;10.252;2023-12-04T11:52:41;40.77;;;19.20;;
3185;SDS011;1604;53.700;10.252;2023-12-04T11:55:43;32.77;;;16.93;;
3185;SDS011;1604;53.700;10.252;2023-12-04T11:58:45;41.30;;;20.90;;
3185;SDS011;1604;53.700;10.252;2023-12-04T12:01:49;42.30;;;18.40;;
3185;SDS011;1604;53.700;10.252;2023-12-04T12:04:53;36.43;;;18.20;;
3185;SDS011;1604;53.700;10.252;2023-12-04T12:08:11;39.60;;;18.57;;
3185;SDS011;1604;53.700;10.252;2023-12-04T12:11:27;43.90;;;18.60;;
3185;SDS011;1604;53.700;10.252;2023-12-04T12:14:43;41.70;;;20.23;;
3185;SDS011;1604;53.700;10.252;2023-12-04T12:17:45;34.03;;;17.27;;
3185;SDS011;1604;53.700;10.252;2023-12-04T12:20:47;34.43;;;17.10;;
3185;SDS011;1604;53.700;10.252;2023-12-04T12:23:51;31.77;;;18.07;;
3185;SDS011;1604;53.700;10.252;2023-12-04T12:26:53;38.43;;;17.57;;
3185;SDS011;1604;53.700;10.252;2023-12-04T12:29:55;36.40;;;19.43;;
3185;SDS011;1604;53.700;10.252;2023-12-04T12:33:12;36.57;;;15.97;;
3185;SDS011;1604;53.700;10.252;2023-12-04T12:36:15;30.00;;;17.03;;
3185;SDS011;1604;53.700;10.252;2023-12-04T12:39:33;35.80;;;16.80;;
3185;SDS011;1604;53.700;10.252;2023-12-04T12:42:35;35.57;;;19.53;;
3185;SDS011;1604;53.700;10.252;2023-12-04T12:45:51;37.87;;;18.80;;
3185;SDS011;1604;53.700;10.252;2023-12-04T12:48:54;36.97;;;17.20;;
3185;SDS011;1604;53.700;10.252;2023-12-04T12:52:10;31.97;;;14.57;;
3185;SDS011;1604;53.700;10.252;2023-12-04T12:55:28;36.43;;;17.90;;
3185;SDS011;1604;53.700;10.252;2023-12-04T12:58:44;36.63;;;16.50;;
3185;SDS011;1604;53.700;10.252;2023-12-04T13:01:47;33.67;;;15.77;;
3185;SDS011;1604;53.700;10.252;2023-12-04T13:04:49;40.50;;;18.90;;
3185;SDS011;1604;53.700;10.252;2023-12-04T13:07:52;38.97;;;17.27;;
3185;SDS011;1604;53.700;10.252;2023-12-04T13:10:56;39.03;;;17.93;;
3185;SDS011;1604;53.700;10.252;2023-12-04T13:14:12;34.70;;;17.20;;
3185;SDS011;1604;53.700;10.252;2023-12-04T13:17:22;35.27;;;16.87;;
3185;SDS011;1604;53.700;10.252;2023-12-04T13:20:24;41.47;;;20.50;;
3185;SDS011;1604;53.700;10.252;2023-12-04T13:23:40;36.20;;;19.20;;
3185;SDS011;1604;53.700;10.252;2023-12-04T13:26:44;37.37;;;19.53;;
3185;SDS011;1604;53.700;10.252;2023-12-04T13:30:27;33.93;;;15.97;;
3185;SDS011;1604;53.700;10.252;2023-12-04T13:33:29;38.70;;;18.87;;
3185;SDS011;1604;53.700;10.252;2023-12-04T13:36:33;33.70;;;15.10;;
3185;SDS011;1604;53.700;10.252;2023-12-04T13:39:55;42.20;;;15.60;;
3185;SDS011;1604;53.700;10.252;2023-12-04T13:43:00;37.07;;;16.10;;
3185;SDS011;1604;53.700;10.252;2023-12-04T13:46:20;40.90;;;19.17;;
3185;SDS011;1604;53.700;10.252;2023-12-04T13:49:22;36.37;;;17.40;;
3185;SDS011;1604;53.700;10.252;2023-12-04T13:52:24;34.97;;;17.03;;
3185;SDS011;1604;53.700;10.252;2023-12-04T13:55:30;36.83;;;18.80;;
3185;SDS011;1604;53.700;10.252;2023-12-04T13:59:00;36.03;;;16.53;;
3185;SDS011;1604;53.700;10.252;2023-12-04T14:02:40;37.37;;;18.20;;
3185;SDS011;1604;53.700;10.252;2023-12-04T14:05:57;37.40;;;18.10;;
3185;SDS011;1604;53.700;10.252;2023-12-04T14:08:59;38.23;;;17.17;;
3185;SDS011;1604;53.700;10.252;2023-12-04T14:12:01;35.67;;;18.00;;
3185;SDS011;1604;53.700;10.252;2023-12-04T14:15:18;37.10;;;17.30;;
3185;SDS011;1604;53.700;10.252;2023-12-04T14:18:34;32.57;;;15.00;;
3185;SDS011;1604;53.700;10.252;2023-12-04T14:21:50;35.77;;;17.03;;
3185;SDS011;1604;53.700;10.252;2023-12-04T14:24:52;33.17;;;17.57;;
3185;SDS011;1604;53.700;10.252;2023-12-04T14:27:54;34.33;;;15.60;;
3185;SDS011;1604;53.700;10.252;2023-12-04T14:30:57;36.93;;;17.90;;
3185;SDS011;1604;53.700;10.252;2023-12-04T14:34:13;36.50;;;19.87;;
3185;SDS011;1604;53.700;10.252;2023-12-04T14:37:15;35.07;;;17.03;;
3185;SDS011;1604;53.700;10.252;2023-12-04T14:40:17;34.67;;;18.20;;
3185;SDS011;1604;53.700;10.252;2023-12-04T14:43:20;29.10;;;15.23;;
3185;SDS011;1604;53.700;10.252;2023-12-04T14:46:23;35.17;;;18.57;;
3185;SDS011;1604;53.700;10.252;2023-12-04T14:49:46;33.00;;;18.60;;
3185;SDS011;1604;53.700;10.252;2023-12-04T14:52:53;35.73;;;17.57;;
3185;SDS011;1604;53.700;10.252;2023-12-04T14:55:57;33.70;;;14.70;;
3185;SDS011;1604;53.700;10.252;2023-12-04T14:59:18;32.43;;;16.10;;
3185;SDS011;1604;53.700;10.252;2023-12-04T15:02:50;23.77;;;10.50;;
3185;SDS011;1604;53.700;10.252;2023-12-04T15:06:08;30.50;;;15.80;;
3185;SDS011;1604;53.700;10.252;2023-12-04T15:09:31;31.90;;;19.90;;
3185;SDS011;1604;53.700;10.252;2023-12-04T15:13:07;29.93;;;17.87;;
3185;SDS011;1604;53.700;10.252;2023-12-04T15:16:40;34.13;;;15.20;;
3185;SDS011;1604;53.700;10.252;2023-12-04T15:19:49;29.37;;;16.60;;
3185;SDS011;1604;53.700;10.252;2023-12-04T15:23:29;28.83;;;16.33;;
3185;SDS011;1604;53.700;10.252;2023-12-04T15:26:31;35.47;;;16.73;;
3185;SDS011;1604;53.700;10.252;2023-12-04T15:29:33;30.87;;;15.90;;
3185;SDS011;1604;53.700;10.252;2023-12-04T15:32:35;30.03;;;15.13;;
3185;SDS011;1604;53.700;10.252;2023-12-04T15:36:13;27.73;;;14.53;;
3185;SDS011;1604;53.700;10.252;2023-12-04T15:39:29;25.43;;;12.83;;
3185;SDS011;1604;53.700;10.252;2023-12-04T15:42:31;27.57;;;13.27;;
3185;SDS011;1604;53.700;10.252;2023-12-04T15:45:33;27.17;;;14.37;;
3185;SDS011;1604;53.700;10.252;2023-12-04T15:48:35;30.37;;;15.50;;
3185;SDS011;1604;53.700;10.252;2023-12-04T15:51:40;25.77;;;14.07;;
3185;SDS011;1604;53.700;10.252;2023-12-04T15:54:41;35.77;;;18.50;;
3185;SDS011;1604;53.700;10.252;2023-12-04T15:57:44;22.63;;;13.70;;
3185;SDS011;1604;53.700;10.252;2023-12-04T16:00:59;22.63;;;12.03;;
3185;SDS011;1604;53.700;10.252;2023-12-04T16:04:15;22.50;;;12.20;;
3185;SDS011;1604;53.700;10.252;2023-12-04T16:07:19;18.97;;;10.23;;
3185;SDS011;1604;53.700;10.252;2023-12-04T16:10:40;23.43;;;12.60;;
3185;SDS011;1604;53.700;10.252;2023-12-04T16:13:42;21.57;;;10.57;;
3185;SDS011;1604;53.700;10.252;2023-12-04T16:16:44;19.63;;;11.63;;
3185;SDS011;1604;53.700;10.252;2023-12-04T16:19:46;23.27;;;13.93;;
3185;SDS011;1604;53.700;10.252;2023-12-04T16:22:50;19.00;;;11.17;;
3185;SDS011;1604;53.700;10.252;2023-12-04T16:26:26;22.63;;;13.50;;
3185;SDS011;1604;53.700;10.252;2023-12-04T16:29:42;22.20;;;15.17;;
3185;SDS011;1604;53.700;10.252;2023-12-04T16:33:05;19.87;;;11.10;;
3185;SDS011;1604;53.700;10.252;2023-12-04T16:36:07;21.33;;;12.10;;
3185;SDS011;1604;53.700;10.252;2023-12-04T16:39:26;20.70;;;12.40;;
3185;SDS011;1604;53.700;10.252;2023-12-04T16:42:42;18.40;;;9.50;;
3185;SDS011;1604;53.700;10.252;2023-12-04T16:45:44;17.87;;;10.20;;
3185;SDS011;1604;53.700;10.252;2023-12-04T16:49:00;16.00;;;10.50;;
3185;SDS011;1604;53.700;10.252;2023-12-04T16:52:02;18.90;;;10.00;;
3185;SDS011;1604;53.700;10.252;2023-12-04T16:55:20;20.70;;;8.17;;
3185;SDS011;1604;53.700;10.252;2023-12-04T16:58:36;17.70;;;10.00;;
3185;SDS011;1604;53.700;10.252;2023-12-04T17:01:37;19.47;;;9.63;;
3185;SDS011;1604;53.700;10.252;2023-12-04T17:04:39;16.27;;;10.17;;
3185;SDS011;1604;53.700;10.252;2023-12-04T17:07:41;13.40;;;9.57;;
3185;SDS011;1604;53.700;10.252;2023-12-04T17:10:46;13.00;;;7.23;;
3185;SDS011;1604;53.700;10.252;2023-12-04T17:14:03;15.20;;;7.87;;
3185;SDS011;1604;53.700;10.252;2023-12-04T17:17:05;16.30;;;8.67;;
3185;SDS011;1604;53.700;10.252;2023-12-04T17:20:07;16.60;;;9.30;;
3185;SDS011;1604;53.700;10.252;2023-12-04T17:23:24;13.60;;;7.87;;
3185;SDS011;1604;53.700;10.252;2023-12-04T17:26:41;9.57;;;6.60;;
3185;SDS011;1604;53.700;10.252;2023-12-04T17:30:18;14.43;;;8.40;;
3185;SDS011;1604;53.700;10.252;2023-12-04T17:33:20;14.07;;;8.70;;
3185;SDS011;1604;53.700;10.252;2023-12-04T17:36:22;15.40;;;8.90;;
3185;SDS011;1604;53.700;10.252;2023-12-04T17:39:24;13.33;;;8.07;;
3185;SDS011;1604;53.700;10.252;2023-12-04T17:42:28;14.50;;;8.93;;
3185;SDS011;1604;53.700;10.252;2023-12-04T17:45:34;12.87;;;8.20;;
3185;SDS011;1604;53.700;10.252;2023-12-04T17:49:07;17.30;;;9.80;;
3185;SDS011;1604;53.700;10.252;2023-12-04T17:52:23;19.40;;;8.43;;
3185;SDS011;1604;53.700;10.252;2023-12-04T17:55:25;16.87;;;8.43;;
3185;SDS011;1604;53.700;10.252;2023-12-04T17:58:28;10.03;;;6.73;;
3185;SDS011;1604;53.700;10.252;2023-12-04T18:01:30;14.20;;;7.40;;
3185;SDS011;1604;53.700;10.252;2023-12-04T18:04:46;13.37;;;8.37;;
3185;SDS011;1604;53.700;10.252;2023-12-04T18:08:03;17.60;;;8.00;;
3185;SDS011;1604;53.700;10.252;2023-12-04T18:11:06;11.87;;;7.40;;
3185;SDS011;1604;53.700;10.252;2023-12-04T18:14:23;14.53;;;8.83;;
3185;SDS011;1604;53.700;10.252;2023-12-04T18:18:04;13.40;;;8.27;;
3185;SDS011;1604;53.700;10.252;2023-12-04T18:21:06;13.80;;;7.80;;
3185;SDS011;1604;53.700;10.252;2023-12-04T18:24:09;12.67;;;8.30;;
3185;SDS011;1604;53.700;10.252;2023-12-04T18:27:25;11.53;;;8.03;;